CheckWX is a tool to help pilots better visualize weather data.  It is not intended as a substitute for an official pre-flight weather briefing.

18:05:40 UTC

CYPQ METAR
Peterborough Airport
Peterborough, Canada
Current

1 hour ago

CYPQ 241700Z AUTO 31012G20KT 9SM OVC019 06/02 A2990 RMK SLP133
Observed
Apr-24 @ 17:00 UTC
Wind
  • 310° at 12 KTS
  • Gusting to 20 KTS
Visibility
9 SM
Flight Rules
MVFR
Cloud Levels
  • Overcast at 1,900' AGL
Temperature
C / 43°F
Dewpoint
C / 36°F
Humidity
76%
Altimeter
29.9" Hg
Pressure
1012.52 hPa
Previous

2 hours ago

CYPQ 241600Z AUTO 31016G24KT 9SM OVC019 07/02 A2989 RMK SLP129
Observed
Apr-24 @ 16:00 UTC
Wind
  • 310° at 16 KTS
  • Gusting to 24 KTS
Visibility
9 SM
Flight Rules
MVFR
Cloud Levels
  • Overcast at 1,900' AGL
Temperature
C / 45°F
Dewpoint
C / 36°F
Humidity
71%
Altimeter
29.89" Hg
Pressure
1012.22 hPa
Previous

3 hours ago

CYPQ 241500Z AUTO 31020G25KT 9SM OVC017 06/02 A2988 RMK SLP126
Observed
Apr-24 @ 15:00 UTC
Wind
  • 310° at 20 KTS
  • Gusting to 25 KTS
Visibility
9 SM
Flight Rules
MVFR
Cloud Levels
  • Overcast at 1,700' AGL
Temperature
C / 43°F
Dewpoint
C / 36°F
Humidity
76%
Altimeter
29.88" Hg
Pressure
1011.82 hPa